createdAt,value
2022-11-27T00:00:13.166Z,7.76
2022-11-27T00:03:00.801Z,7.79
2022-11-27T00:05:30.510Z,7.72
2022-11-27T00:07:57.813Z,7.63
2022-11-27T00:10:25.712Z,7.52
2022-11-27T00:12:53.042Z,7.55
2022-11-27T00:15:21.025Z,7.57
2022-11-27T00:17:48.480Z,7.56
2022-11-27T00:20:16.499Z,7.48
2022-11-27T00:22:45.832Z,7.53
2022-11-27T00:25:13.796Z,7.60
2022-11-27T00:27:41.126Z,7.60
2022-11-27T00:30:09.719Z,7.69
2022-11-27T00:32:37.210Z,7.76
2022-11-27T00:35:05.719Z,7.72
2022-11-27T00:37:33.402Z,7.73
2022-11-27T00:40:02.520Z,7.82
2022-11-27T00:42:29.921Z,7.83
2022-11-27T00:44:57.579Z,7.83
2022-11-27T00:47:25.044Z,7.71
2022-11-27T00:49:53.103Z,7.69
2022-11-27T00:52:20.318Z,7.68
2022-11-27T00:54:48.090Z,7.71
2022-11-27T00:57:16.933Z,7.73
2022-11-27T00:59:44.595Z,7.77
2022-11-27T01:02:12.061Z,7.87
2022-11-27T01:04:40.422Z,7.95
2022-11-27T01:07:07.748Z,8.11
2022-11-27T01:09:35.479Z,8.43
2022-11-27T01:12:02.839Z,8.29
2022-11-27T01:14:32.275Z,8.23
2022-11-27T01:16:59.737Z,8.22
2022-11-27T01:19:27.635Z,8.20
2022-11-27T01:21:54.934Z,8.11
2022-11-27T01:24:22.729Z,8.11
2022-11-27T01:26:50.035Z,8.03
2022-11-27T01:29:18.076Z,7.99
2022-11-27T01:31:47.054Z,7.91
2022-11-27T01:34:17.347Z,7.98
2022-11-27T01:36:44.943Z,8.01
2022-11-27T01:39:16.309Z,8.07
2022-11-27T01:41:44.867Z,7.99
2022-11-27T01:44:51.436Z,7.76
2022-11-27T01:47:29.186Z,7.65
2022-11-27T01:50:06.450Z,7.46
2022-11-27T01:52:37.148Z,7.48
2022-11-27T01:55:08.165Z,7.51
2022-11-27T01:57:44.606Z,7.38
2022-11-27T02:00:25.971Z,7.29
2022-11-27T02:02:54.820Z,6.96
2022-11-27T02:05:24.190Z,7.06
2022-11-27T02:07:52.386Z,7.30
2022-11-27T02:10:21.048Z,7.37
2022-11-27T02:12:56.602Z,7.63
2022-11-27T02:15:30.171Z,7.70
2022-11-27T02:18:06.437Z,7.65
2022-11-27T02:20:43.445Z,7.66
2022-11-27T02:23:41.744Z,7.50
2022-11-27T02:26:34.863Z,7.49
2022-11-27T02:29:05.942Z,7.48
2022-11-27T02:31:40.680Z,7.53
2022-11-27T02:34:18.011Z,7.58
2022-11-27T02:36:52.771Z,7.62
2022-11-27T02:39:25.783Z,7.66
2022-11-27T02:42:00.373Z,7.68
2022-11-27T02:44:34.033Z,7.73
2022-11-27T02:47:04.956Z,7.84
2022-11-27T02:49:35.768Z,7.89
2022-11-27T02:52:05.322Z,7.83
2022-11-27T02:54:34.150Z,7.87
2022-11-27T02:57:06.863Z,7.83
2022-11-27T02:59:37.084Z,7.74
2022-11-27T03:02:09.521Z,7.70
2022-11-27T03:04:43.230Z,7.53
2022-11-27T03:07:17.100Z,7.40
2022-11-27T03:09:48.485Z,7.32
2022-11-27T03:12:18.523Z,7.13
2022-11-27T03:14:48.488Z,7.12
2022-11-27T03:17:29.108Z,7.23
2022-11-27T03:20:01.358Z,7.31
2022-11-27T03:22:29.102Z,7.32
2022-11-27T03:24:56.446Z,7.41
2022-11-27T03:27:30.670Z,7.59
2022-11-27T03:30:01.807Z,7.67
2022-11-27T03:32:32.358Z,7.77
2022-11-27T03:35:01.442Z,7.77
2022-11-27T03:37:29.617Z,7.93
2022-11-27T03:39:57.224Z,7.96
2022-11-27T03:42:30.435Z,7.88
2022-11-27T03:45:05.958Z,7.84
2022-11-27T03:47:48.403Z,7.79
2022-11-27T03:50:28.676Z,7.61
2022-11-27T03:53:05.738Z,7.44
2022-11-27T03:55:42.457Z,7.35
2022-11-27T03:58:15.880Z,7.50
2022-11-27T04:00:45.559Z,7.43
2022-11-27T04:03:13.807Z,7.40
2022-11-27T04:05:41.485Z,7.33
2022-11-27T04:08:09.155Z,7.49
2022-11-27T04:10:36.414Z,7.48
2022-11-27T04:13:04.117Z,7.47
2022-11-27T04:15:31.435Z,7.59
2022-11-27T04:18:00.542Z,7.49
2022-11-27T04:20:27.845Z,7.64
2022-11-27T04:22:55.553Z,7.74
2022-11-27T04:25:23.343Z,7.70
2022-11-27T04:27:51.355Z,7.47
2022-11-27T04:30:18.840Z,7.36
2022-11-27T04:32:46.790Z,7.38
2022-11-27T04:35:15.677Z,7.33
2022-11-27T04:37:43.880Z,7.50
2022-11-27T04:40:12.386Z,7.67
2022-11-27T04:42:40.142Z,7.47
2022-11-27T04:45:08.226Z,7.38
2022-11-27T04:47:35.994Z,7.47
2022-11-27T04:50:03.856Z,7.55
2022-11-27T04:52:33.067Z,7.41
2022-11-27T04:55:00.710Z,7.06
2022-11-27T04:57:28.505Z,6.92
2022-11-27T04:59:56.162Z,6.97
2022-11-27T05:02:23.826Z,6.91
2022-11-27T05:04:51.277Z,6.83
2022-11-27T05:07:18.999Z,7.07
2022-11-27T05:09:47.776Z,7.26
2022-11-27T05:12:15.580Z,7.18
2022-11-27T05:14:43.014Z,6.85
2022-11-27T05:17:11.183Z,6.63
2022-11-27T05:19:38.648Z,6.70
2022-11-27T05:22:07.429Z,6.92
2022-11-27T05:24:35.175Z,6.98
2022-11-27T05:27:04.374Z,7.06
2022-11-27T05:29:31.983Z,7.11
2022-11-27T05:31:59.621Z,7.20
2022-11-27T05:34:27.100Z,7.37
2022-11-27T05:36:54.912Z,7.55
2022-11-27T05:39:22.083Z,7.72
2022-11-27T05:41:50.271Z,7.77
2022-11-27T05:44:18.991Z,7.66
2022-11-27T05:46:46.738Z,7.45
2022-11-27T05:49:15.896Z,7.42
2022-11-27T05:51:50.490Z,7.49
2022-11-27T05:54:18.818Z,7.63
2022-11-27T05:56:46.754Z,7.79
2022-11-27T05:59:14.379Z,7.80
2022-11-27T06:01:47.035Z,7.69
2022-11-27T06:04:16.877Z,7.54
2022-11-27T06:06:44.859Z,7.43
2022-11-27T06:09:13.476Z,7.43
2022-11-27T06:11:41.927Z,7.50
2022-11-27T06:14:09.689Z,7.65
2022-11-27T06:16:38.226Z,7.78
2022-11-27T06:19:08.176Z,7.43
2022-11-27T06:21:36.030Z,7.26
2022-11-27T06:24:03.429Z,7.31
2022-11-27T06:26:33.317Z,7.45
2022-11-27T06:29:01.412Z,7.61
2022-11-27T06:31:31.894Z,7.39
2022-11-27T06:34:00.244Z,7.27
2022-11-27T06:36:31.692Z,6.98
2022-11-27T06:38:59.587Z,7.08
2022-11-27T06:41:27.983Z,7.20
2022-11-27T06:43:56.021Z,7.31
2022-11-27T06:46:24.417Z,7.52
2022-11-27T06:48:53.263Z,7.78
2022-11-27T06:51:23.705Z,7.54
2022-11-27T06:53:53.291Z,7.23
2022-11-27T06:56:23.491Z,6.98
2022-11-27T06:58:51.718Z,7.06
2022-11-27T07:01:19.768Z,7.10
2022-11-27T07:03:47.208Z,7.17
2022-11-27T07:06:18.170Z,7.40
2022-11-27T07:08:45.595Z,7.62
2022-11-27T07:11:16.489Z,7.64
2022-11-27T07:13:44.385Z,7.49
2022-11-27T07:16:13.531Z,7.23
2022-11-27T07:18:42.882Z,7.25
2022-11-27T07:21:10.845Z,7.19
2022-11-27T07:23:38.564Z,7.25
2022-11-27T07:26:07.289Z,7.27
2022-11-27T07:28:36.636Z,7.30
2022-11-27T07:31:04.066Z,7.37
2022-11-27T07:33:32.087Z,7.23
2022-11-27T07:36:00.647Z,7.26
2022-11-27T07:38:28.337Z,7.24
2022-11-27T07:40:55.696Z,7.28
2022-11-27T07:43:23.356Z,7.36
2022-11-27T07:45:52.339Z,7.49
2022-11-27T07:48:20.011Z,7.61
2022-11-27T07:50:47.350Z,7.61
2022-11-27T07:53:15.143Z,7.25
2022-11-27T07:55:42.832Z,6.90
2022-11-27T07:58:10.487Z,6.66
2022-11-27T08:00:38.916Z,6.41
2022-11-27T08:03:08.215Z,6.49
2022-11-27T08:05:37.763Z,6.64
2022-11-27T08:08:05.630Z,6.69
2022-11-27T08:10:35.613Z,6.55
2022-11-27T08:13:04.027Z,6.49
2022-11-27T08:15:31.526Z,6.62
2022-11-27T08:17:59.259Z,6.87
2022-11-27T08:20:28.009Z,6.97
2022-11-27T08:23:01.037Z,6.92
2022-11-27T08:25:29.938Z,6.94
2022-11-27T08:27:57.804Z,7.22
2022-11-27T08:30:25.499Z,7.03
2022-11-27T08:32:53.251Z,6.90
2022-11-27T08:35:20.651Z,6.85
2022-11-27T08:37:50.018Z,6.66
2022-11-27T08:40:17.351Z,6.65
2022-11-27T08:42:45.021Z,6.91
2022-11-27T08:45:12.567Z,7.00
2022-11-27T08:47:40.209Z,6.96
2022-11-27T08:50:08.677Z,6.83
2022-11-27T08:52:36.340Z,6.83
2022-11-27T08:55:05.944Z,6.88
2022-11-27T08:57:33.582Z,6.91
2022-11-27T09:00:01.001Z,6.76
2022-11-27T09:02:28.869Z,6.76
2022-11-27T09:04:56.165Z,6.69
2022-11-27T09:07:24.135Z,6.70
2022-11-27T09:09:51.531Z,6.69
2022-11-27T09:12:20.679Z,6.82
2022-11-27T09:14:48.056Z,6.96
2022-11-27T09:17:15.663Z,6.93
2022-11-27T09:19:42.894Z,6.76
2022-11-27T09:22:10.580Z,6.97
2022-11-27T09:24:38.081Z,6.93
2022-11-27T09:27:05.918Z,6.88
2022-11-27T09:29:35.806Z,6.81
2022-11-27T09:32:03.627Z,6.99
2022-11-27T09:34:34.665Z,7.09
2022-11-27T09:37:05.182Z,6.92
2022-11-27T09:39:32.477Z,6.76
2022-11-27T09:42:02.951Z,6.72
2022-11-27T09:44:37.893Z,6.76
2022-11-27T09:47:14.816Z,6.87
2022-11-27T09:49:46.943Z,6.89
2022-11-27T09:52:19.385Z,6.95
2022-11-27T09:54:53.046Z,6.84
2022-11-27T09:57:29.112Z,6.74
2022-11-27T10:00:02.292Z,6.84
2022-11-27T10:02:32.480Z,6.97
2022-11-27T10:05:13.890Z,6.95
2022-11-27T10:08:00.719Z,7.38
2022-11-27T10:10:44.375Z,7.58
2022-11-27T10:13:28.732Z,7.60
2022-11-27T10:16:05.402Z,7.33
2022-11-27T10:18:39.889Z,7.53
2022-11-27T10:21:13.563Z,7.66
2022-11-27T10:23:49.291Z,7.45
2022-11-27T10:26:19.151Z,7.45
2022-11-27T10:28:57.782Z,7.72
2022-11-27T10:31:35.661Z,7.76
2022-11-27T10:34:06.985Z,7.72
2022-11-27T10:36:39.851Z,7.98
2022-11-27T10:39:16.402Z,8.11
2022-11-27T10:41:50.350Z,7.90
2022-11-27T10:44:28.355Z,8.04
2022-11-27T10:47:02.008Z,7.85
2022-11-27T10:49:31.375Z,7.91
2022-11-27T10:51:59.918Z,7.94
2022-11-27T10:54:31.788Z,7.79
2022-11-27T10:57:22.363Z,7.71
2022-11-27T11:00:01.649Z,7.77
2022-11-27T11:02:31.355Z,7.79
2022-11-27T11:05:32.919Z,7.73
2022-11-27T11:08:01.413Z,8.07
2022-11-27T11:10:33.177Z,7.92
2022-11-27T11:13:15.346Z,7.94
2022-11-27T11:15:51.773Z,7.86
2022-11-27T11:18:23.630Z,7.80
2022-11-27T11:20:53.907Z,7.78
2022-11-27T11:23:26.065Z,7.80
2022-11-27T11:25:55.224Z,7.82
2022-11-27T11:28:23.822Z,7.80
2022-11-27T11:30:59.418Z,7.92
2022-11-27T11:33:28.914Z,8.08
2022-11-27T11:36:06.937Z,8.10
2022-11-27T11:38:34.612Z,8.09
2022-11-27T11:41:05.866Z,8.14
2022-11-27T11:43:35.383Z,8.16
2022-11-27T11:46:18.703Z,8.09
2022-11-27T11:48:57.371Z,7.98
2022-11-27T11:51:37.489Z,8.01
2022-11-27T11:54:25.034Z,7.80
2022-11-27T11:56:53.944Z,7.69
2022-11-27T11:59:31.778Z,7.68
2022-11-27T12:02:20.835Z,7.87
2022-11-27T12:05:11.810Z,7.77
2022-11-27T12:08:03.486Z,7.87
2022-11-27T12:10:38.338Z,7.96
2022-11-27T12:13:18.789Z,8.08
2022-11-27T12:15:55.174Z,8.08
2022-11-27T12:18:31.729Z,8.02
2022-11-27T12:21:13.396Z,7.87
2022-11-27T12:23:58.067Z,8.12
2022-11-27T12:26:36.180Z,8.17
2022-11-27T12:29:26.149Z,8.17
2022-11-27T12:32:13.180Z,8.24
2022-11-27T12:34:58.993Z,8.41
2022-11-27T12:37:41.878Z,8.16
2022-11-27T12:40:41.004Z,8.24
2022-11-27T12:43:15.021Z,8.13
2022-11-27T12:45:47.781Z,8.10
2022-11-27T12:48:18.278Z,8.07
2022-11-27T12:50:50.876Z,8.05
2022-11-27T12:53:26.633Z,8.03
2022-11-27T12:56:03.693Z,7.99
2022-11-27T12:58:37.464Z,7.96
2022-11-27T13:01:10.280Z,7.88
2022-11-27T13:03:45.958Z,7.75
2022-11-27T13:06:16.462Z,7.80
2022-11-27T13:08:54.948Z,7.77
2022-11-27T13:11:27.386Z,7.90
2022-11-27T13:13:59.676Z,7.95
2022-11-27T13:16:34.182Z,7.82
2022-11-27T13:19:07.238Z,7.92
2022-11-27T13:21:36.302Z,8.02
2022-11-27T13:24:06.044Z,8.01
2022-11-27T13:26:36.870Z,8.10
2022-11-27T13:29:13.737Z,8.12
2022-11-27T13:31:44.631Z,8.09
2022-11-27T13:34:18.438Z,8.04
2022-11-27T13:36:54.581Z,8.10
2022-11-27T13:39:27.419Z,7.91
2022-11-27T13:42:05.959Z,8.09
2022-11-27T13:44:36.601Z,7.98
2022-11-27T13:47:12.071Z,7.92
2022-11-27T13:49:40.673Z,7.76
2022-11-27T13:52:12.513Z,7.76
2022-11-27T13:54:52.785Z,7.82
2022-11-27T13:57:20.767Z,7.77
2022-11-27T14:00:02.268Z,7.85
2022-11-27T14:02:44.667Z,7.98
2022-11-27T14:05:13.261Z,7.58
2022-11-27T14:07:43.634Z,7.48
2022-11-27T14:10:16.110Z,7.38
2022-11-27T14:12:54.943Z,7.44
2022-11-27T14:15:25.098Z,7.29
2022-11-27T14:18:04.421Z,7.27
2022-11-27T14:20:35.343Z,7.27
2022-11-27T14:23:18.541Z,7.26
2022-11-27T14:25:47.205Z,7.27
2022-11-27T14:28:18.935Z,7.22
2022-11-27T14:30:48.541Z,7.13
2022-11-27T14:33:18.622Z,7.21
2022-11-27T14:35:49.178Z,7.23
2022-11-27T14:38:17.044Z,7.06
2022-11-27T14:40:45.128Z,6.93
2022-11-27T14:43:18.536Z,7.07
2022-11-27T14:45:47.595Z,7.02
2022-11-27T14:48:22.920Z,6.97
2022-11-27T14:50:52.641Z,7.13
2022-11-27T14:53:23.832Z,7.13
2022-11-27T14:55:54.635Z,7.13
2022-11-27T14:58:27.142Z,7.07
2022-11-27T15:00:58.662Z,7.01
2022-11-27T15:03:27.205Z,7.01
2022-11-27T15:05:58.432Z,6.98
2022-11-27T15:08:27.635Z,6.99
2022-11-27T15:10:59.589Z,7.13
2022-11-27T15:13:31.481Z,7.09
2022-11-27T15:16:04.002Z,6.92
2022-11-27T15:18:35.373Z,6.97
2022-11-27T15:21:09.262Z,6.95
2022-11-27T15:23:37.425Z,6.81
2022-11-27T15:26:14.398Z,6.84
2022-11-27T15:28:53.604Z,6.78
2022-11-27T15:31:26.614Z,6.76
2022-11-27T15:33:59.804Z,6.89
2022-11-27T15:36:33.754Z,6.90
2022-11-27T15:39:21.522Z,6.94
2022-11-27T15:41:55.133Z,6.98
2022-11-27T15:44:25.642Z,6.95
2022-11-27T15:46:54.529Z,6.87
2022-11-27T15:49:22.840Z,6.72
2022-11-27T15:51:52.994Z,6.65
2022-11-27T15:54:20.924Z,6.57
2022-11-27T15:56:48.475Z,6.58
2022-11-27T15:59:16.836Z,6.50
2022-11-27T16:01:45.699Z,6.44
2022-11-27T16:04:13.843Z,6.36
2022-11-27T16:06:44.156Z,6.32
2022-11-27T16:09:17.205Z,6.46
2022-11-27T16:11:45.167Z,6.52
2022-11-27T16:14:14.035Z,6.41
2022-11-27T16:16:41.517Z,6.38
2022-11-27T16:19:11.393Z,6.40
2022-11-27T16:21:38.973Z,6.52
2022-11-27T16:24:08.668Z,6.56
2022-11-27T16:26:35.979Z,6.63
2022-11-27T16:29:04.076Z,6.72
2022-11-27T16:31:31.657Z,6.67
2022-11-27T16:33:59.451Z,6.65
2022-11-27T16:36:29.027Z,6.72
2022-11-27T16:38:56.863Z,6.63
2022-11-27T16:41:24.667Z,6.61
2022-11-27T16:43:54.964Z,6.71
2022-11-27T16:46:24.368Z,6.64
2022-11-27T16:48:53.293Z,6.58
2022-11-27T16:51:23.159Z,6.41
2022-11-27T16:53:54.905Z,6.41
2022-11-27T16:56:24.391Z,6.34
2022-11-27T16:58:54.085Z,6.25
2022-11-27T17:01:27.580Z,6.27
2022-11-27T17:03:56.137Z,6.19
2022-11-27T17:06:27.254Z,6.21
2022-11-27T17:08:57.320Z,6.19
2022-11-27T17:11:26.398Z,6.08
2022-11-27T17:13:57.470Z,6.09
2022-11-27T17:16:25.443Z,6.06
2022-11-27T17:18:53.899Z,6.02
2022-11-27T17:21:23.045Z,5.94
2022-11-27T17:23:51.282Z,5.96
2022-11-27T17:26:21.590Z,6.02
2022-11-27T17:28:50.420Z,5.96
2022-11-27T17:31:20.398Z,5.92
2022-11-27T17:33:48.331Z,5.93
2022-11-27T17:39:01.702Z,5.93
2022-11-27T17:41:33.543Z,5.96
2022-11-27T17:44:03.503Z,5.91
2022-11-27T17:46:31.286Z,5.77
2022-11-27T17:49:00.844Z,5.79
2022-11-27T17:51:30.610Z,5.78
2022-11-27T17:53:59.205Z,5.71
2022-11-27T17:56:27.224Z,5.58
2022-11-27T17:58:56.474Z,5.49
2022-11-27T18:01:25.831Z,5.47
2022-11-27T18:03:55.315Z,5.55
2022-11-27T18:06:22.602Z,5.54
2022-11-27T18:08:50.313Z,5.52
2022-11-27T18:11:20.181Z,5.54
2022-11-27T18:13:48.589Z,5.62
2022-11-27T18:16:20.354Z,5.58
2022-11-27T18:18:48.488Z,5.60
2022-11-27T18:21:18.826Z,5.51
2022-11-27T18:24:21.522Z,5.42
2022-11-27T18:29:24.394Z,5.48
2022-11-27T18:31:53.374Z,5.50
2022-11-27T18:34:21.381Z,5.52
2022-11-27T18:36:48.647Z,5.49
2022-11-27T18:39:16.603Z,5.60
2022-11-27T18:41:44.194Z,5.58
2022-11-27T18:44:12.029Z,5.48
2022-11-27T18:46:40.279Z,5.27
2022-11-27T18:49:09.808Z,5.27
2022-11-27T18:51:37.054Z,5.25
2022-11-27T18:54:05.278Z,5.30
2022-11-27T18:56:32.670Z,5.39
2022-11-27T18:59:01.591Z,5.31
2022-11-27T19:01:34.213Z,5.20
2022-11-27T19:04:05.707Z,5.24
2022-11-27T19:06:36.083Z,5.12
2022-11-27T19:09:05.022Z,5.13
2022-11-27T19:11:32.611Z,5.17
2022-11-27T19:14:01.463Z,5.32
2022-11-27T19:16:31.549Z,5.39
2022-11-27T19:19:00.512Z,5.30
2022-11-27T19:21:30.536Z,5.21
2022-11-27T19:24:01.437Z,5.20
2022-11-27T19:26:30.986Z,5.06
2022-11-27T19:29:00.745Z,4.96
2022-11-27T19:31:28.524Z,4.93
2022-11-27T19:33:58.367Z,5.13
2022-11-27T19:36:26.808Z,5.07
2022-11-27T19:38:55.952Z,5.03
2022-11-27T19:41:25.503Z,4.91
2022-11-27T19:43:53.980Z,4.69
2022-11-27T19:46:23.447Z,4.66
2022-11-27T19:48:55.652Z,4.68
2022-11-27T19:51:23.606Z,4.51
2022-11-27T19:53:53.416Z,4.43
2022-11-27T19:56:21.054Z,4.36
2022-11-27T19:58:50.170Z,4.40
2022-11-27T20:01:19.544Z,4.39
2022-11-27T20:03:49.840Z,4.34
2022-11-27T20:06:19.163Z,4.50
2022-11-27T20:08:48.858Z,4.52
2022-11-27T20:11:19.211Z,4.51
2022-11-27T20:13:47.704Z,4.33
2022-11-27T20:16:20.098Z,4.25
2022-11-27T20:18:47.860Z,4.18
2022-11-27T20:21:18.701Z,4.27
2022-11-27T20:23:48.771Z,4.26
2022-11-27T20:26:17.846Z,4.24
2022-11-27T20:28:45.627Z,4.19
2022-11-27T20:31:15.622Z,4.09
2022-11-27T20:33:45.660Z,3.87
2022-11-27T20:36:14.883Z,3.83
2022-11-27T20:38:43.037Z,3.76
2022-11-27T20:41:13.258Z,3.69
2022-11-27T20:43:42.005Z,3.74
2022-11-27T20:46:12.002Z,3.71
2022-11-27T20:48:39.977Z,3.76
2022-11-27T20:51:10.878Z,3.81
2022-11-27T20:53:38.774Z,3.78
2022-11-27T20:56:08.676Z,3.96
2022-11-27T20:58:38.241Z,4.04
2022-11-27T21:01:13.879Z,3.98
2022-11-27T21:03:41.808Z,3.93
2022-11-27T21:06:11.015Z,3.94
2022-11-27T21:08:38.989Z,3.93
2022-11-27T21:11:11.700Z,3.98
2022-11-27T21:13:39.537Z,3.94
2022-11-27T21:16:08.281Z,3.91
2022-11-27T21:18:36.408Z,3.99
2022-11-27T21:21:08.084Z,4.00
2022-11-27T21:23:38.361Z,3.87
2022-11-27T21:26:06.600Z,3.95
2022-11-27T21:28:35.150Z,3.88
2022-11-27T21:31:07.183Z,3.83
2022-11-27T21:33:35.345Z,3.94
2022-11-27T21:36:03.370Z,3.97
2022-11-27T21:38:31.444Z,3.93
2022-11-27T21:41:00.259Z,3.92
2022-11-27T21:43:31.083Z,3.98
2022-11-27T21:45:58.583Z,4.02
2022-11-27T21:48:26.246Z,3.91
2022-11-27T21:51:00.493Z,4.05
2022-11-27T21:53:28.987Z,4.05
2022-11-27T21:55:56.479Z,4.14
2022-11-27T21:58:26.175Z,4.09
2022-11-27T22:00:53.453Z,4.06
2022-11-27T22:03:21.363Z,4.14
2022-11-27T22:05:56.931Z,4.21
2022-11-27T22:08:24.793Z,4.32
2022-11-27T22:10:52.294Z,4.18
2022-11-27T22:13:20.042Z,4.29
2022-11-27T22:15:48.663Z,4.31
2022-11-27T22:18:16.253Z,4.22
2022-11-27T22:20:43.759Z,4.36
2022-11-27T22:23:11.634Z,4.29
2022-11-27T22:25:38.994Z,4.28
2022-11-27T22:28:06.787Z,4.34
2022-11-27T22:30:34.134Z,4.32
2022-11-27T22:33:03.453Z,4.35
2022-11-27T22:35:30.685Z,4.35
2022-11-27T22:37:58.649Z,4.32
2022-11-27T22:40:25.985Z,4.35
2022-11-27T22:42:54.142Z,4.35
2022-11-27T22:45:21.505Z,4.28
2022-11-27T22:47:49.340Z,4.25
2022-11-27T22:50:18.380Z,4.23
2022-11-27T22:52:46.157Z,4.29
2022-11-27T22:55:13.435Z,4.43
2022-11-27T22:57:41.426Z,4.39
2022-11-27T23:00:10.054Z,4.32
2022-11-27T23:02:38.152Z,4.42
2022-11-27T23:05:06.008Z,4.35
2022-11-27T23:07:35.138Z,4.25
2022-11-27T23:10:02.540Z,4.33
2022-11-27T23:12:30.397Z,4.37
2022-11-27T23:14:57.656Z,4.37
2022-11-27T23:17:25.986Z,4.31
2022-11-27T23:19:53.298Z,4.27
2022-11-27T23:22:20.835Z,4.35
2022-11-27T23:24:49.468Z,4.39
2022-11-27T23:27:17.162Z,4.40
2022-11-27T23:29:44.539Z,4.56
2022-11-27T23:32:12.648Z,4.61
2022-11-27T23:34:40.251Z,4.79
2022-11-27T23:37:08.547Z,4.71
2022-11-27T23:39:35.973Z,4.64
2022-11-27T23:42:05.443Z,4.31
2022-11-27T23:44:32.688Z,4.11
2022-11-27T23:47:01.401Z,4.08
2022-11-27T23:49:28.646Z,4.30
2022-11-27T23:51:58.490Z,4.10
2022-11-27T23:54:25.849Z,4.17
2022-11-27T23:56:53.791Z,4.12
2022-11-27T23:59:22.541Z,4.00
